sensor_id;sensor_type;location;lat;lon;timestamp;P1;durP1;ratioP1;P2;durP2;ratioP2
11703;SDS011;5908;51.354;7.458;2024-03-07T00:01:49;54.30;;;34.15;;
11703;SDS011;5908;51.354;7.458;2024-03-07T00:04:16;57.10;;;35.88;;
11703;SDS011;5908;51.354;7.458;2024-03-07T00:06:43;59.55;;;36.72;;
11703;SDS011;5908;51.354;7.458;2024-03-07T00:09:10;99.75;;;61.42;;
11703;SDS011;5908;51.354;7.458;2024-03-07T00:11:37;59.38;;;37.03;;
11703;SDS011;5908;51.354;7.458;2024-03-07T00:14:03;63.83;;;39.97;;
11703;SDS011;5908;51.354;7.458;2024-03-07T00:16:32;56.10;;;34.58;;
11703;SDS011;5908;51.354;7.458;2024-03-07T00:18:59;59.05;;;36.58;;
11703;SDS011;5908;51.354;7.458;2024-03-07T00:21:26;57.75;;;36.70;;
11703;SDS011;5908;51.354;7.458;2024-03-07T00:23:53;60.42;;;38.22;;
11703;SDS011;5908;51.354;7.458;2024-03-07T00:26:20;54.85;;;35.95;;
11703;SDS011;5908;51.354;7.458;2024-03-07T00:28:47;60.70;;;38.33;;
11703;SDS011;5908;51.354;7.458;2024-03-07T00:31:14;61.25;;;36.85;;
11703;SDS011;5908;51.354;7.458;2024-03-07T00:33:43;62.15;;;39.05;;
11703;SDS011;5908;51.354;7.458;2024-03-07T00:36:10;57.38;;;35.38;;
11703;SDS011;5908;51.354;7.458;2024-03-07T00:38:37;58.75;;;37.22;;
11703;SDS011;5908;51.354;7.458;2024-03-07T00:41:04;60.42;;;36.78;;
11703;SDS011;5908;51.354;7.458;2024-03-07T00:43:31;57.97;;;36.78;;
11703;SDS011;5908;51.354;7.458;2024-03-07T00:45:57;55.90;;;35.92;;
11703;SDS011;5908;51.354;7.458;2024-03-07T00:48:24;53.10;;;33.83;;
11703;SDS011;5908;51.354;7.458;2024-03-07T00:50:52;54.03;;;33.90;;
11703;SDS011;5908;51.354;7.458;2024-03-07T00:53:19;52.55;;;34.42;;
11703;SDS011;5908;51.354;7.458;2024-03-07T00:55:46;49.75;;;32.95;;
11703;SDS011;5908;51.354;7.458;2024-03-07T00:58:13;55.53;;;33.35;;
11703;SDS011;5908;51.354;7.458;2024-03-07T01:00:40;52.90;;;33.90;;
11703;SDS011;5908;51.354;7.458;2024-03-07T01:03:08;55.97;;;34.05;;
11703;SDS011;5908;51.354;7.458;2024-03-07T01:05:36;57.50;;;35.38;;
11703;SDS011;5908;51.354;7.458;2024-03-07T01:08:05;50.85;;;33.35;;
11703;SDS011;5908;51.354;7.458;2024-03-07T01:10:32;50.92;;;33.95;;
11703;SDS011;5908;51.354;7.458;2024-03-07T01:12:59;51.85;;;33.15;;
11703;SDS011;5908;51.354;7.458;2024-03-07T01:15:27;51.40;;;33.50;;
11703;SDS011;5908;51.354;7.458;2024-03-07T01:17:54;75.97;;;40.73;;
11703;SDS011;5908;51.354;7.458;2024-03-07T01:20:21;60.63;;;36.08;;
11703;SDS011;5908;51.354;7.458;2024-03-07T01:22:50;69.10;;;39.85;;
11703;SDS011;5908;51.354;7.458;2024-03-07T01:25:18;69.45;;;38.58;;
11703;SDS011;5908;51.354;7.458;2024-03-07T01:27:46;56.20;;;34.93;;
11703;SDS011;5908;51.354;7.458;2024-03-07T01:30:14;59.47;;;37.43;;
11703;SDS011;5908;51.354;7.458;2024-03-07T01:32:41;64.25;;;39.30;;
11703;SDS011;5908;51.354;7.458;2024-03-07T01:35:08;60.65;;;37.65;;
11703;SDS011;5908;51.354;7.458;2024-03-07T01:37:35;59.38;;;35.70;;
11703;SDS011;5908;51.354;7.458;2024-03-07T01:40:02;63.15;;;38.60;;
11703;SDS011;5908;51.354;7.458;2024-03-07T01:42:31;61.30;;;37.63;;
11703;SDS011;5908;51.354;7.458;2024-03-07T01:44:58;58.20;;;36.77;;
11703;SDS011;5908;51.354;7.458;2024-03-07T01:47:25;57.15;;;36.30;;
11703;SDS011;5908;51.354;7.458;2024-03-07T01:49:52;68.95;;;37.28;;
11703;SDS011;5908;51.354;7.458;2024-03-07T01:52:18;85.80;;;38.80;;
11703;SDS011;5908;51.354;7.458;2024-03-07T01:54:47;77.70;;;41.97;;
11703;SDS011;5908;51.354;7.458;2024-03-07T01:57:14;82.43;;;40.92;;
11703;SDS011;5908;51.354;7.458;2024-03-07T01:59:44;100.63;;;41.58;;
11703;SDS011;5908;51.354;7.458;2024-03-07T02:02:12;80.60;;;42.10;;
11703;SDS011;5908;51.354;7.458;2024-03-07T02:04:39;94.00;;;39.92;;
11703;SDS011;5908;51.354;7.458;2024-03-07T02:07:06;69.60;;;39.28;;
11703;SDS011;5908;51.354;7.458;2024-03-07T02:09:37;89.47;;;41.58;;
11703;SDS011;5908;51.354;7.458;2024-03-07T02:12:04;92.15;;;38.00;;
11703;SDS011;5908;51.354;7.458;2024-03-07T02:14:34;76.47;;;40.22;;
11703;SDS011;5908;51.354;7.458;2024-03-07T02:17:02;105.63;;;39.50;;
11703;SDS011;5908;51.354;7.458;2024-03-07T02:19:29;75.30;;;37.70;;
11703;SDS011;5908;51.354;7.458;2024-03-07T02:21:58;101.25;;;43.08;;
11703;SDS011;5908;51.354;7.458;2024-03-07T02:24:25;92.35;;;37.35;;
11703;SDS011;5908;51.354;7.458;2024-03-07T02:26:52;99.60;;;39.60;;
11703;SDS011;5908;51.354;7.458;2024-03-07T02:29:18;80.15;;;38.45;;
11703;SDS011;5908;51.354;7.458;2024-03-07T02:31:45;84.28;;;38.97;;
11703;SDS011;5908;51.354;7.458;2024-03-07T02:34:12;63.75;;;37.83;;
11703;SDS011;5908;51.354;7.458;2024-03-07T02:36:48;51.20;;;32.50;;
11703;SDS011;5908;51.354;7.458;2024-03-07T02:39:17;160.38;;;39.00;;
11703;SDS011;5908;51.354;7.458;2024-03-07T02:41:46;58.42;;;34.40;;
11703;SDS011;5908;51.354;7.458;2024-03-07T02:44:13;47.97;;;32.77;;
11703;SDS011;5908;51.354;7.458;2024-03-07T02:46:40;55.37;;;32.80;;
11703;SDS011;5908;51.354;7.458;2024-03-07T02:49:06;50.03;;;30.80;;
11703;SDS011;5908;51.354;7.458;2024-03-07T02:51:33;47.40;;;29.90;;
11703;SDS011;5908;51.354;7.458;2024-03-07T02:54:00;46.28;;;30.70;;
11703;SDS011;5908;51.354;7.458;2024-03-07T02:56:31;60.13;;;31.63;;
11703;SDS011;5908;51.354;7.458;2024-03-07T02:58:58;105.40;;;34.80;;
11703;SDS011;5908;51.354;7.458;2024-03-07T03:01:25;156.13;;;36.37;;
11703;SDS011;5908;51.354;7.458;2024-03-07T03:03:51;73.88;;;34.72;;
11703;SDS011;5908;51.354;7.458;2024-03-07T03:06:18;58.50;;;31.88;;
11703;SDS011;5908;51.354;7.458;2024-03-07T03:08:45;63.50;;;31.60;;
11703;SDS011;5908;51.354;7.458;2024-03-07T03:11:12;64.95;;;30.58;;
11703;SDS011;5908;51.354;7.458;2024-03-07T03:13:41;66.03;;;29.90;;
11703;SDS011;5908;51.354;7.458;2024-03-07T03:16:07;79.13;;;30.88;;
11703;SDS011;5908;51.354;7.458;2024-03-07T03:18:35;70.07;;;30.48;;
11703;SDS011;5908;51.354;7.458;2024-03-07T03:21:02;50.95;;;29.27;;
11703;SDS011;5908;51.354;7.458;2024-03-07T03:23:29;64.00;;;29.02;;
11703;SDS011;5908;51.354;7.458;2024-03-07T03:25:56;52.88;;;28.65;;
11703;SDS011;5908;51.354;7.458;2024-03-07T03:28:23;57.15;;;28.40;;
11703;SDS011;5908;51.354;7.458;2024-03-07T03:30:51;55.95;;;27.67;;
11703;SDS011;5908;51.354;7.458;2024-03-07T03:33:19;47.72;;;27.38;;
11703;SDS011;5908;51.354;7.458;2024-03-07T03:35:46;46.95;;;28.58;;
11703;SDS011;5908;51.354;7.458;2024-03-07T03:38:13;65.35;;;30.52;;
11703;SDS011;5908;51.354;7.458;2024-03-07T03:40:41;120.00;;;36.60;;
11703;SDS011;5908;51.354;7.458;2024-03-07T03:43:07;187.50;;;42.30;;
11703;SDS011;5908;51.354;7.458;2024-03-07T03:45:34;175.70;;;40.10;;
11703;SDS011;5908;51.354;7.458;2024-03-07T03:48:03;113.65;;;36.88;;
11703;SDS011;5908;51.354;7.458;2024-03-07T03:50:30;187.07;;;40.15;;
11703;SDS011;5908;51.354;7.458;2024-03-07T03:52:57;173.32;;;41.80;;
11703;SDS011;5908;51.354;7.458;2024-03-07T03:55:26;274.02;;;49.28;;
11703;SDS011;5908;51.354;7.458;2024-03-07T03:57:53;217.38;;;44.30;;
11703;SDS011;5908;51.354;7.458;2024-03-07T04:00:20;142.85;;;41.05;;
11703;SDS011;5908;51.354;7.458;2024-03-07T04:02:48;301.88;;;51.30;;
11703;SDS011;5908;51.354;7.458;2024-03-07T04:05:16;165.20;;;44.00;;
11703;SDS011;5908;51.354;7.458;2024-03-07T04:07:45;315.55;;;50.92;;
11703;SDS011;5908;51.354;7.458;2024-03-07T04:10:12;258.50;;;49.10;;
11703;SDS011;5908;51.354;7.458;2024-03-07T04:12:41;216.03;;;43.90;;
11703;SDS011;5908;51.354;7.458;2024-03-07T04:15:09;143.15;;;37.38;;
11703;SDS011;5908;51.354;7.458;2024-03-07T04:17:37;256.05;;;43.10;;
11703;SDS011;5908;51.354;7.458;2024-03-07T04:20:04;116.85;;;35.45;;
11703;SDS011;5908;51.354;7.458;2024-03-07T04:22:34;79.20;;;33.80;;
11703;SDS011;5908;51.354;7.458;2024-03-07T04:25:04;178.25;;;39.05;;
11703;SDS011;5908;51.354;7.458;2024-03-07T04:27:32;240.63;;;42.03;;
11703;SDS011;5908;51.354;7.458;2024-03-07T04:29:59;72.03;;;33.78;;
11703;SDS011;5908;51.354;7.458;2024-03-07T04:32:28;260.60;;;41.15;;
11703;SDS011;5908;51.354;7.458;2024-03-07T04:34:55;289.10;;;44.70;;
11703;SDS011;5908;51.354;7.458;2024-03-07T04:37:22;261.05;;;40.67;;
11703;SDS011;5908;51.354;7.458;2024-03-07T04:39:50;288.42;;;43.40;;
11703;SDS011;5908;51.354;7.458;2024-03-07T04:42:17;152.10;;;37.08;;
11703;SDS011;5908;51.354;7.458;2024-03-07T04:44:44;62.17;;;32.13;;
11703;SDS011;5908;51.354;7.458;2024-03-07T04:47:10;77.57;;;32.58;;
11703;SDS011;5908;51.354;7.458;2024-03-07T04:49:37;199.77;;;39.28;;
11703;SDS011;5908;51.354;7.458;2024-03-07T04:52:05;189.18;;;40.05;;
11703;SDS011;5908;51.354;7.458;2024-03-07T04:54:32;228.43;;;41.10;;
11703;SDS011;5908;51.354;7.458;2024-03-07T04:57:00;165.95;;;39.92;;
11703;SDS011;5908;51.354;7.458;2024-03-07T04:59:27;190.75;;;43.75;;
11703;SDS011;5908;51.354;7.458;2024-03-07T05:01:54;312.77;;;47.60;;
11703;SDS011;5908;51.354;7.458;2024-03-07T05:04:21;194.80;;;36.90;;
11703;SDS011;5908;51.354;7.458;2024-03-07T05:06:50;293.02;;;43.97;;
11703;SDS011;5908;51.354;7.458;2024-03-07T05:09:17;130.40;;;33.25;;
11703;SDS011;5908;51.354;7.458;2024-03-07T05:11:53;221.17;;;38.03;;
11703;SDS011;5908;51.354;7.458;2024-03-07T05:14:21;95.82;;;30.60;;
11703;SDS011;5908;51.354;7.458;2024-03-07T05:16:50;174.32;;;34.05;;
11703;SDS011;5908;51.354;7.458;2024-03-07T05:19:30;119.32;;;32.72;;
11703;SDS011;5908;51.354;7.458;2024-03-07T05:21:57;71.25;;;27.83;;
11703;SDS011;5908;51.354;7.458;2024-03-07T05:24:24;105.65;;;27.98;;
11703;SDS011;5908;51.354;7.458;2024-03-07T05:26:50;122.28;;;30.95;;
11703;SDS011;5908;51.354;7.458;2024-03-07T05:29:18;165.40;;;33.90;;
11703;SDS011;5908;51.354;7.458;2024-03-07T05:31:47;156.85;;;34.80;;
11703;SDS011;5908;51.354;7.458;2024-03-07T05:37:05;119.28;;;29.13;;
11703;SDS011;5908;51.354;7.458;2024-03-07T05:39:32;139.25;;;30.92;;
11703;SDS011;5908;51.354;7.458;2024-03-07T05:41:59;60.60;;;24.80;;
11703;SDS011;5908;51.354;7.458;2024-03-07T05:44:26;42.97;;;24.63;;
11703;SDS011;5908;51.354;7.458;2024-03-07T05:46:54;37.73;;;24.50;;
11703;SDS011;5908;51.354;7.458;2024-03-07T05:49:21;35.47;;;23.50;;
11703;SDS011;5908;51.354;7.458;2024-03-07T05:51:47;35.67;;;23.77;;
11703;SDS011;5908;51.354;7.458;2024-03-07T05:54:14;37.38;;;23.75;;
11703;SDS011;5908;51.354;7.458;2024-03-07T05:56:41;42.45;;;26.35;;
11703;SDS011;5908;51.354;7.458;2024-03-07T05:59:08;69.43;;;30.17;;
11703;SDS011;5908;51.354;7.458;2024-03-07T06:01:35;52.30;;;30.42;;
11703;SDS011;5908;51.354;7.458;2024-03-07T06:04:04;126.65;;;31.95;;
11703;SDS011;5908;51.354;7.458;2024-03-07T06:06:32;49.67;;;28.10;;
11703;SDS011;5908;51.354;7.458;2024-03-07T06:09:01;40.30;;;26.00;;
11703;SDS011;5908;51.354;7.458;2024-03-07T06:11:32;34.95;;;24.08;;
11703;SDS011;5908;51.354;7.458;2024-03-07T06:14:00;54.05;;;26.42;;
11703;SDS011;5908;51.354;7.458;2024-03-07T06:16:27;68.20;;;28.15;;
11703;SDS011;5908;51.354;7.458;2024-03-07T06:18:57;81.03;;;29.48;;
11703;SDS011;5908;51.354;7.458;2024-03-07T06:21:26;87.93;;;29.40;;
11703;SDS011;5908;51.354;7.458;2024-03-07T06:23:53;68.68;;;29.40;;
11703;SDS011;5908;51.354;7.458;2024-03-07T06:26:24;80.77;;;30.53;;
11703;SDS011;5908;51.354;7.458;2024-03-07T06:29:02;115.47;;;32.13;;
11703;SDS011;5908;51.354;7.458;2024-03-07T06:31:30;89.95;;;29.23;;
11703;SDS011;5908;51.354;7.458;2024-03-07T06:33:57;431.70;;;59.63;;
11703;SDS011;5908;51.354;7.458;2024-03-07T06:36:23;88.47;;;29.53;;
11703;SDS011;5908;51.354;7.458;2024-03-07T06:38:53;81.97;;;30.33;;
11703;SDS011;5908;51.354;7.458;2024-03-07T06:41:20;61.78;;;29.50;;
11703;SDS011;5908;51.354;7.458;2024-03-07T06:43:46;56.33;;;29.95;;
11703;SDS011;5908;51.354;7.458;2024-03-07T06:46:14;49.00;;;28.38;;
11703;SDS011;5908;51.354;7.458;2024-03-07T06:48:42;45.70;;;27.95;;
11703;SDS011;5908;51.354;7.458;2024-03-07T06:51:09;54.15;;;28.50;;
11703;SDS011;5908;51.354;7.458;2024-03-07T06:53:37;62.35;;;28.98;;
11703;SDS011;5908;51.354;7.458;2024-03-07T06:56:04;78.28;;;31.73;;
11703;SDS011;5908;51.354;7.458;2024-03-07T06:58:31;43.42;;;28.20;;
11703;SDS011;5908;51.354;7.458;2024-03-07T07:00:58;35.47;;;24.97;;
11703;SDS011;5908;51.354;7.458;2024-03-07T07:03:26;139.73;;;35.53;;
11703;SDS011;5908;51.354;7.458;2024-03-07T07:05:54;52.47;;;28.10;;
11703;SDS011;5908;51.354;7.458;2024-03-07T07:08:21;47.25;;;28.35;;
11703;SDS011;5908;51.354;7.458;2024-03-07T07:10:50;37.10;;;24.80;;
11703;SDS011;5908;51.354;7.458;2024-03-07T07:13:19;34.78;;;24.73;;
11703;SDS011;5908;51.354;7.458;2024-03-07T07:15:46;44.38;;;26.30;;
11703;SDS011;5908;51.354;7.458;2024-03-07T07:18:12;214.40;;;45.35;;
11703;SDS011;5908;51.354;7.458;2024-03-07T07:20:40;38.67;;;26.02;;
11703;SDS011;5908;51.354;7.458;2024-03-07T07:23:07;46.10;;;28.90;;
11703;SDS011;5908;51.354;7.458;2024-03-07T07:25:34;39.88;;;27.55;;
11703;SDS011;5908;51.354;7.458;2024-03-07T07:28:02;48.00;;;26.77;;
11703;SDS011;5908;51.354;7.458;2024-03-07T07:30:30;39.00;;;25.90;;
11703;SDS011;5908;51.354;7.458;2024-03-07T07:32:57;38.88;;;26.08;;
11703;SDS011;5908;51.354;7.458;2024-03-07T07:35:23;38.50;;;26.52;;
11703;SDS011;5908;51.354;7.458;2024-03-07T07:37:51;37.58;;;25.30;;
11703;SDS011;5908;51.354;7.458;2024-03-07T07:40:20;42.78;;;26.67;;
11703;SDS011;5908;51.354;7.458;2024-03-07T07:42:50;35.58;;;24.63;;
11703;SDS011;5908;51.354;7.458;2024-03-07T07:45:19;37.10;;;24.25;;
11703;SDS011;5908;51.354;7.458;2024-03-07T07:47:47;37.07;;;26.27;;
11703;SDS011;5908;51.354;7.458;2024-03-07T07:50:15;42.88;;;29.48;;
11703;SDS011;5908;51.354;7.458;2024-03-07T07:52:43;38.88;;;25.98;;
11703;SDS011;5908;51.354;7.458;2024-03-07T07:55:13;36.85;;;24.65;;
11703;SDS011;5908;51.354;7.458;2024-03-07T07:57:40;36.22;;;26.55;;
11703;SDS011;5908;51.354;7.458;2024-03-07T08:00:09;41.38;;;28.92;;
11703;SDS011;5908;51.354;7.458;2024-03-07T08:02:49;41.42;;;28.52;;
11703;SDS011;5908;51.354;7.458;2024-03-07T08:05:17;40.72;;;28.88;;
11703;SDS011;5908;51.354;7.458;2024-03-07T08:07:45;42.90;;;29.50;;
11703;SDS011;5908;51.354;7.458;2024-03-07T08:10:12;50.50;;;35.83;;
11703;SDS011;5908;51.354;7.458;2024-03-07T08:12:40;43.60;;;30.00;;
11703;SDS011;5908;51.354;7.458;2024-03-07T08:15:08;38.53;;;27.05;;
11703;SDS011;5908;51.354;7.458;2024-03-07T08:17:38;39.53;;;28.85;;
11703;SDS011;5908;51.354;7.458;2024-03-07T08:20:10;37.67;;;27.00;;
11703;SDS011;5908;51.354;7.458;2024-03-07T08:22:38;42.47;;;28.45;;
11703;SDS011;5908;51.354;7.458;2024-03-07T08:25:06;39.85;;;28.27;;
11703;SDS011;5908;51.354;7.458;2024-03-07T08:27:35;37.10;;;26.65;;
11703;SDS011;5908;51.354;7.458;2024-03-07T08:30:02;33.83;;;24.98;;
11703;SDS011;5908;51.354;7.458;2024-03-07T08:32:31;36.65;;;25.60;;
11703;SDS011;5908;51.354;7.458;2024-03-07T08:34:59;35.45;;;25.52;;
11703;SDS011;5908;51.354;7.458;2024-03-07T08:37:32;36.00;;;26.63;;
11703;SDS011;5908;51.354;7.458;2024-03-07T08:40:01;34.42;;;25.02;;
11703;SDS011;5908;51.354;7.458;2024-03-07T08:42:31;33.78;;;23.92;;
11703;SDS011;5908;51.354;7.458;2024-03-07T08:44:59;56.60;;;39.15;;
11703;SDS011;5908;51.354;7.458;2024-03-07T08:47:26;40.37;;;27.40;;
11703;SDS011;5908;51.354;7.458;2024-03-07T08:49:53;42.22;;;29.75;;
11703;SDS011;5908;51.354;7.458;2024-03-07T08:52:20;35.00;;;25.45;;
11703;SDS011;5908;51.354;7.458;2024-03-07T08:54:49;37.95;;;26.52;;
11703;SDS011;5908;51.354;7.458;2024-03-07T08:57:16;42.57;;;29.43;;
11703;SDS011;5908;51.354;7.458;2024-03-07T08:59:44;41.50;;;27.90;;
11703;SDS011;5908;51.354;7.458;2024-03-07T09:02:12;40.53;;;28.40;;
11703;SDS011;5908;51.354;7.458;2024-03-07T09:04:39;40.63;;;28.00;;
11703;SDS011;5908;51.354;7.458;2024-03-07T09:07:06;39.38;;;28.33;;
11703;SDS011;5908;51.354;7.458;2024-03-07T09:09:32;38.55;;;27.30;;
11703;SDS011;5908;51.354;7.458;2024-03-07T09:12:01;36.08;;;26.00;;
11703;SDS011;5908;51.354;7.458;2024-03-07T09:14:28;35.90;;;26.38;;
11703;SDS011;5908;51.354;7.458;2024-03-07T09:16:55;38.50;;;27.58;;
11703;SDS011;5908;51.354;7.458;2024-03-07T09:19:22;38.75;;;28.48;;
11703;SDS011;5908;51.354;7.458;2024-03-07T09:21:50;37.75;;;27.65;;
11703;SDS011;5908;51.354;7.458;2024-03-07T09:24:18;36.22;;;26.15;;
11703;SDS011;5908;51.354;7.458;2024-03-07T09:26:46;33.67;;;25.08;;
11703;SDS011;5908;51.354;7.458;2024-03-07T09:29:15;38.08;;;28.30;;
11703;SDS011;5908;51.354;7.458;2024-03-07T09:31:43;35.70;;;23.73;;
11703;SDS011;5908;51.354;7.458;2024-03-07T09:34:10;36.97;;;24.97;;
11703;SDS011;5908;51.354;7.458;2024-03-07T09:36:37;33.30;;;23.40;;
11703;SDS011;5908;51.354;7.458;2024-03-07T09:39:06;35.50;;;23.93;;
11703;SDS011;5908;51.354;7.458;2024-03-07T09:41:34;30.77;;;21.50;;
11703;SDS011;5908;51.354;7.458;2024-03-07T09:44:00;34.17;;;22.30;;
11703;SDS011;5908;51.354;7.458;2024-03-07T09:46:30;33.53;;;21.83;;
11703;SDS011;5908;51.354;7.458;2024-03-07T09:48:57;36.03;;;23.03;;
11703;SDS011;5908;51.354;7.458;2024-03-07T09:51:24;31.97;;;21.77;;
11703;SDS011;5908;51.354;7.458;2024-03-07T09:53:52;37.90;;;22.33;;
11703;SDS011;5908;51.354;7.458;2024-03-07T09:56:23;32.37;;;21.87;;
11703;SDS011;5908;51.354;7.458;2024-03-07T09:58:51;32.37;;;21.27;;
11703;SDS011;5908;51.354;7.458;2024-03-07T10:01:20;29.87;;;19.47;;
11703;SDS011;5908;51.354;7.458;2024-03-07T10:03:48;31.87;;;21.20;;
11703;SDS011;5908;51.354;7.458;2024-03-07T10:06:19;30.60;;;20.90;;
11703;SDS011;5908;51.354;7.458;2024-03-07T10:08:46;31.87;;;20.00;;
11703;SDS011;5908;51.354;7.458;2024-03-07T10:11:14;31.57;;;21.13;;
